sensor_id;sensor_type;location;lat;lon;timestamp;P1;durP1;ratioP1;P2;durP2;ratioP2
45392;SDS011;31129;44.810;10.334;2023-07-30T00:00:31;6.63;;;3.03;;
45392;SDS011;31129;44.810;10.334;2023-07-30T00:02:56;14.27;;;3.58;;
45392;SDS011;31129;44.810;10.334;2023-07-30T00:05:22;10.98;;;4.20;;
45392;SDS011;31129;44.810;10.334;2023-07-30T00:07:47;8.32;;;3.40;;
45392;SDS011;31129;44.810;10.334;2023-07-30T00:10:13;11.18;;;3.92;;
45392;SDS011;31129;44.810;10.334;2023-07-30T00:12:39;10.40;;;2.88;;
45392;SDS011;31129;44.810;10.334;2023-07-30T00:15:06;9.27;;;2.13;;
45392;SDS011;31129;44.810;10.334;2023-07-30T00:17:32;7.20;;;1.75;;
45392;SDS011;31129;44.810;10.334;2023-07-30T00:19:57;4.85;;;1.40;;
45392;SDS011;31129;44.810;10.334;2023-07-30T00:22:23;9.77;;;1.40;;
45392;SDS011;31129;44.810;10.334;2023-07-30T00:24:48;5.38;;;1.45;;
45392;SDS011;31129;44.810;10.334;2023-07-30T00:27:14;13.52;;;1.77;;
45392;SDS011;31129;44.810;10.334;2023-07-30T00:29:39;7.25;;;1.55;;
45392;SDS011;31129;44.810;10.334;2023-07-30T00:32:05;8.98;;;1.40;;
45392;SDS011;31129;44.810;10.334;2023-07-30T00:34:31;10.75;;;1.40;;
45392;SDS011;31129;44.810;10.334;2023-07-30T00:36:56;9.77;;;1.67;;
45392;SDS011;31129;44.810;10.334;2023-07-30T00:39:22;5.85;;;1.35;;
45392;SDS011;31129;44.810;10.334;2023-07-30T00:41:47;2.88;;;1.52;;
45392;SDS011;31129;44.810;10.334;2023-07-30T00:44:13;4.00;;;1.55;;
45392;SDS011;31129;44.810;10.334;2023-07-30T00:46:40;2.33;;;1.42;;
45392;SDS011;31129;44.810;10.334;2023-07-30T00:49:06;4.00;;;1.30;;
45392;SDS011;31129;44.810;10.334;2023-07-30T00:51:31;3.17;;;1.05;;
45392;SDS011;31129;44.810;10.334;2023-07-30T00:53:58;1.27;;;0.88;;
45392;SDS011;31129;44.810;10.334;2023-07-30T00:56:25;1.90;;;0.90;;
45392;SDS011;31129;44.810;10.334;2023-07-30T00:58:52;7.15;;;1.42;;
45392;SDS011;31129;44.810;10.334;2023-07-30T01:01:17;4.68;;;1.50;;
45392;SDS011;31129;44.810;10.334;2023-07-30T01:03:43;1.73;;;1.08;;
45392;SDS011;31129;44.810;10.334;2023-07-30T01:06:10;5.65;;;1.73;;
45392;SDS011;31129;44.810;10.334;2023-07-30T01:08:35;2.25;;;1.50;;
45392;SDS011;31129;44.810;10.334;2023-07-30T01:11:02;2.53;;;1.40;;
45392;SDS011;31129;44.810;10.334;2023-07-30T01:13:29;2.25;;;1.10;;
45392;SDS011;31129;44.810;10.334;2023-07-30T01:15:55;2.47;;;1.13;;
45392;SDS011;31129;44.810;10.334;2023-07-30T01:18:21;2.45;;;1.20;;
45392;SDS011;31129;44.810;10.334;2023-07-30T01:20:46;5.93;;;1.27;;
45392;SDS011;31129;44.810;10.334;2023-07-30T01:23:12;3.80;;;1.40;;
45392;SDS011;31129;44.810;10.334;2023-07-30T01:25:38;3.63;;;1.50;;
45392;SDS011;31129;44.810;10.334;2023-07-30T01:28:05;1.83;;;1.00;;
45392;SDS011;31129;44.810;10.334;2023-07-30T01:30:34;1.75;;;1.23;;
45392;SDS011;31129;44.810;10.334;2023-07-30T01:33:05;2.58;;;1.30;;
45392;SDS011;31129;44.810;10.334;2023-07-30T01:35:32;2.65;;;1.27;;
45392;SDS011;31129;44.810;10.334;2023-07-30T01:37:58;2.47;;;1.20;;
45392;SDS011;31129;44.810;10.334;2023-07-30T01:40:24;2.05;;;1.17;;
45392;SDS011;31129;44.810;10.334;2023-07-30T01:42:49;1.88;;;1.20;;
45392;SDS011;31129;44.810;10.334;2023-07-30T01:45:16;6.03;;;1.45;;
45392;SDS011;31129;44.810;10.334;2023-07-30T01:47:42;5.35;;;1.30;;
45392;SDS011;31129;44.810;10.334;2023-07-30T01:50:08;3.15;;;1.17;;
45392;SDS011;31129;44.810;10.334;2023-07-30T01:52:33;4.20;;;1.50;;
45392;SDS011;31129;44.810;10.334;2023-07-30T01:54:59;4.35;;;1.17;;
45392;SDS011;31129;44.810;10.334;2023-07-30T01:57:26;7.20;;;1.10;;
45392;SDS011;31129;44.810;10.334;2023-07-30T01:59:52;1.20;;;1.10;;
45392;SDS011;31129;44.810;10.334;2023-07-30T02:02:17;2.47;;;1.27;;
45392;SDS011;31129;44.810;10.334;2023-07-30T02:04:43;0.88;;;0.88;;
45392;SDS011;31129;44.810;10.334;2023-07-30T02:07:08;3.05;;;1.40;;
45392;SDS011;31129;44.810;10.334;2023-07-30T02:09:34;3.15;;;1.70;;
45392;SDS011;31129;44.810;10.334;2023-07-30T02:12:00;4.78;;;1.73;;
45392;SDS011;31129;44.810;10.334;2023-07-30T02:14:26;3.97;;;1.60;;
45392;SDS011;31129;44.810;10.334;2023-07-30T02:16:51;4.35;;;1.83;;
45392;SDS011;31129;44.810;10.334;2023-07-30T02:19:18;2.75;;;1.52;;
45392;SDS011;31129;44.810;10.334;2023-07-30T02:21:43;2.90;;;1.70;;
45392;SDS011;31129;44.810;10.334;2023-07-30T02:24:09;4.55;;;1.75;;
45392;SDS011;31129;44.810;10.334;2023-07-30T02:26:39;6.10;;;1.50;;
45392;SDS011;31129;44.810;10.334;2023-07-30T02:29:05;3.22;;;1.70;;
45392;SDS011;31129;44.810;10.334;2023-07-30T02:31:31;2.50;;;1.45;;
45392;SDS011;31129;44.810;10.334;2023-07-30T02:33:56;5.13;;;1.85;;
45392;SDS011;31129;44.810;10.334;2023-07-30T02:36:22;2.63;;;1.60;;
45392;SDS011;31129;44.810;10.334;2023-07-30T02:38:49;5.07;;;1.77;;
45392;SDS011;31129;44.810;10.334;2023-07-30T02:41:14;5.88;;;2.38;;
45392;SDS011;31129;44.810;10.334;2023-07-30T02:43:40;3.53;;;2.00;;
45392;SDS011;31129;44.810;10.334;2023-07-30T02:46:05;2.78;;;1.70;;
45392;SDS011;31129;44.810;10.334;2023-07-30T02:48:32;2.73;;;1.53;;
45392;SDS011;31129;44.810;10.334;2023-07-30T02:50:58;2.45;;;1.40;;
45392;SDS011;31129;44.810;10.334;2023-07-30T02:53:23;4.13;;;1.60;;
45392;SDS011;31129;44.810;10.334;2023-07-30T02:55:49;2.40;;;1.55;;
45392;SDS011;31129;44.810;10.334;2023-07-30T02:58:14;4.38;;;1.90;;
45392;SDS011;31129;44.810;10.334;2023-07-30T03:00:40;3.83;;;1.95;;
45392;SDS011;31129;44.810;10.334;2023-07-30T03:03:05;2.75;;;1.58;;
45392;SDS011;31129;44.810;10.334;2023-07-30T03:05:31;3.25;;;2.08;;
45392;SDS011;31129;44.810;10.334;2023-07-30T03:07:56;10.73;;;1.75;;
45392;SDS011;31129;44.810;10.334;2023-07-30T03:10:22;7.13;;;1.80;;
45392;SDS011;31129;44.810;10.334;2023-07-30T03:12:47;5.78;;;2.20;;
45392;SDS011;31129;44.810;10.334;2023-07-30T03:15:13;2.40;;;1.90;;
45392;SDS011;31129;44.810;10.334;2023-07-30T03:17:39;9.57;;;1.80;;
45392;SDS011;31129;44.810;10.334;2023-07-30T03:20:04;4.95;;;1.90;;
45392;SDS011;31129;44.810;10.334;2023-07-30T03:22:30;5.63;;;2.20;;
45392;SDS011;31129;44.810;10.334;2023-07-30T03:24:56;2.15;;;1.92;;
45392;SDS011;31129;44.810;10.334;2023-07-30T03:27:21;3.53;;;1.70;;
45392;SDS011;31129;44.810;10.334;2023-07-30T03:29:47;3.75;;;1.67;;
45392;SDS011;31129;44.810;10.334;2023-07-30T03:32:12;2.17;;;1.73;;
45392;SDS011;31129;44.810;10.334;2023-07-30T03:34:38;4.72;;;2.00;;
45392;SDS011;31129;44.810;10.334;2023-07-30T03:37:05;4.18;;;1.90;;
45392;SDS011;31129;44.810;10.334;2023-07-30T03:39:30;2.13;;;1.58;;
45392;SDS011;31129;44.810;10.334;2023-07-30T03:41:56;7.85;;;2.30;;
45392;SDS011;31129;44.810;10.334;2023-07-30T03:44:21;4.78;;;2.22;;
45392;SDS011;31129;44.810;10.334;2023-07-30T03:46:47;3.10;;;1.80;;
45392;SDS011;31129;44.810;10.334;2023-07-30T03:49:12;2.85;;;2.15;;
45392;SDS011;31129;44.810;10.334;2023-07-30T03:51:38;5.22;;;2.88;;
45392;SDS011;31129;44.810;10.334;2023-07-30T03:54:04;4.63;;;2.40;;
45392;SDS011;31129;44.810;10.334;2023-07-30T03:56:30;7.65;;;2.55;;
45392;SDS011;31129;44.810;10.334;2023-07-30T03:58:55;4.57;;;2.17;;
45392;SDS011;31129;44.810;10.334;2023-07-30T04:01:21;5.13;;;2.45;;
45392;SDS011;31129;44.810;10.334;2023-07-30T04:03:47;5.13;;;2.92;;
45392;SDS011;31129;44.810;10.334;2023-07-30T04:06:12;4.90;;;2.47;;
45392;SDS011;31129;44.810;10.334;2023-07-30T04:08:38;7.03;;;2.17;;
45392;SDS011;31129;44.810;10.334;2023-07-30T04:11:03;2.97;;;2.30;;
45392;SDS011;31129;44.810;10.334;2023-07-30T04:13:29;5.13;;;2.47;;
45392;SDS011;31129;44.810;10.334;2023-07-30T04:15:54;3.78;;;2.70;;
45392;SDS011;31129;44.810;10.334;2023-07-30T04:18:20;6.93;;;2.75;;
45392;SDS011;31129;44.810;10.334;2023-07-30T04:20:47;5.90;;;3.00;;
45392;SDS011;31129;44.810;10.334;2023-07-30T04:23:13;6.03;;;2.67;;
45392;SDS011;31129;44.810;10.334;2023-07-30T04:25:39;4.63;;;2.97;;
45392;SDS011;31129;44.810;10.334;2023-07-30T04:28:05;4.88;;;2.60;;
45392;SDS011;31129;44.810;10.334;2023-07-30T04:30:31;5.80;;;2.72;;
45392;SDS011;31129;44.810;10.334;2023-07-30T04:32:57;6.17;;;2.90;;
45392;SDS011;31129;44.810;10.334;2023-07-30T04:35:23;4.68;;;3.35;;
45392;SDS011;31129;44.810;10.334;2023-07-30T04:37:48;5.93;;;3.00;;
45392;SDS011;31129;44.810;10.334;2023-07-30T04:40:14;3.78;;;2.40;;
45392;SDS011;31129;44.810;10.334;2023-07-30T04:42:40;5.90;;;2.30;;
45392;SDS011;31129;44.810;10.334;2023-07-30T04:45:06;4.72;;;2.65;;
45392;SDS011;31129;44.810;10.334;2023-07-30T04:47:34;12.10;;;2.67;;
45392;SDS011;31129;44.810;10.334;2023-07-30T04:50:00;5.90;;;2.50;;
45392;SDS011;31129;44.810;10.334;2023-07-30T04:52:25;8.00;;;2.75;;
45392;SDS011;31129;44.810;10.334;2023-07-30T04:54:51;7.10;;;2.40;;
45392;SDS011;31129;44.810;10.334;2023-07-30T04:57:16;7.00;;;2.88;;
45392;SDS011;31129;44.810;10.334;2023-07-30T04:59:43;7.65;;;3.05;;
45392;SDS011;31129;44.810;10.334;2023-07-30T05:02:09;8.90;;;3.00;;
45392;SDS011;31129;44.810;10.334;2023-07-30T05:04:34;5.95;;;3.05;;
45392;SDS011;31129;44.810;10.334;2023-07-30T05:07:00;4.38;;;2.78;;
45392;SDS011;31129;44.810;10.334;2023-07-30T05:09:25;6.28;;;3.08;;
45392;SDS011;31129;44.810;10.334;2023-07-30T05:11:51;10.80;;;2.78;;
45392;SDS011;31129;44.810;10.334;2023-07-30T05:14:17;5.78;;;2.38;;
45392;SDS011;31129;44.810;10.334;2023-07-30T05:16:42;4.13;;;2.50;;
45392;SDS011;31129;44.810;10.334;2023-07-30T05:19:08;5.30;;;2.38;;
45392;SDS011;31129;44.810;10.334;2023-07-30T05:21:33;5.75;;;2.75;;
45392;SDS011;31129;44.810;10.334;2023-07-30T05:23:59;7.28;;;3.08;;
45392;SDS011;31129;44.810;10.334;2023-07-30T05:26:24;15.13;;;2.75;;
45392;SDS011;31129;44.810;10.334;2023-07-30T05:28:50;8.82;;;3.03;;
45392;SDS011;31129;44.810;10.334;2023-07-30T05:31:16;6.72;;;2.83;;
45392;SDS011;31129;44.810;10.334;2023-07-30T05:33:41;10.43;;;2.95;;
45392;SDS011;31129;44.810;10.334;2023-07-30T05:36:07;12.38;;;2.65;;
45392;SDS011;31129;44.810;10.334;2023-07-30T05:38:33;5.53;;;2.45;;
45392;SDS011;31129;44.810;10.334;2023-07-30T05:40:58;6.43;;;2.33;;
45392;SDS011;31129;44.810;10.334;2023-07-30T05:43:24;5.40;;;2.05;;
45392;SDS011;31129;44.810;10.334;2023-07-30T05:45:49;6.63;;;2.50;;
45392;SDS011;31129;44.810;10.334;2023-07-30T05:48:15;3.85;;;2.50;;
45392;SDS011;31129;44.810;10.334;2023-07-30T05:50:40;6.65;;;2.63;;
45392;SDS011;31129;44.810;10.334;2023-07-30T05:53:06;3.55;;;2.50;;
45392;SDS011;31129;44.810;10.334;2023-07-30T05:55:32;2.97;;;2.65;;
45392;SDS011;31129;44.810;10.334;2023-07-30T05:57:57;6.03;;;2.25;;
45392;SDS011;31129;44.810;10.334;2023-07-30T06:00:23;4.90;;;2.20;;
45392;SDS011;31129;44.810;10.334;2023-07-30T06:02:49;4.00;;;2.20;;
45392;SDS011;31129;44.810;10.334;2023-07-30T06:05:15;5.75;;;2.53;;
45392;SDS011;31129;44.810;10.334;2023-07-30T06:07:40;3.90;;;2.50;;
45392;SDS011;31129;44.810;10.334;2023-07-30T06:10:06;2.40;;;2.20;;
45392;SDS011;31129;44.810;10.334;2023-07-30T06:12:32;6.22;;;3.08;;
45392;SDS011;31129;44.810;10.334;2023-07-30T06:14:57;5.10;;;2.65;;
45392;SDS011;31129;44.810;10.334;2023-07-30T06:17:23;2.88;;;2.58;;
45392;SDS011;31129;44.810;10.334;2023-07-30T06:19:48;5.82;;;3.05;;
45392;SDS011;31129;44.810;10.334;2023-07-30T06:22:14;3.40;;;2.63;;
45392;SDS011;31129;44.810;10.334;2023-07-30T06:24:39;4.40;;;2.55;;
45392;SDS011;31129;44.810;10.334;2023-07-30T06:27:05;3.95;;;2.55;;
45392;SDS011;31129;44.810;10.334;2023-07-30T06:29:31;4.53;;;2.20;;
45392;SDS011;31129;44.810;10.334;2023-07-30T06:31:56;3.75;;;2.28;;
45392;SDS011;31129;44.810;10.334;2023-07-30T06:34:22;7.13;;;1.92;;
45392;SDS011;31129;44.810;10.334;2023-07-30T06:36:47;3.35;;;2.60;;
45392;SDS011;31129;44.810;10.334;2023-07-30T06:39:13;2.75;;;2.00;;
45392;SDS011;31129;44.810;10.334;2023-07-30T06:41:39;3.05;;;1.88;;
45392;SDS011;31129;44.810;10.334;2023-07-30T06:44:05;7.80;;;1.90;;
45392;SDS011;31129;44.810;10.334;2023-07-30T06:46:30;6.70;;;2.33;;
45392;SDS011;31129;44.810;10.334;2023-07-30T06:48:56;4.43;;;1.88;;
45392;SDS011;31129;44.810;10.334;2023-07-30T06:51:24;3.33;;;1.77;;
45392;SDS011;31129;44.810;10.334;2023-07-30T06:53:49;3.97;;;1.48;;
45392;SDS011;31129;44.810;10.334;2023-07-30T06:56:18;3.83;;;1.80;;
45392;SDS011;31129;44.810;10.334;2023-07-30T06:58:44;2.58;;;1.60;;
45392;SDS011;31129;44.810;10.334;2023-07-30T07:01:09;1.88;;;1.58;;
45392;SDS011;31129;44.810;10.334;2023-07-30T07:03:35;2.40;;;1.60;;
45392;SDS011;31129;44.810;10.334;2023-07-30T07:06:00;4.18;;;1.48;;
45392;SDS011;31129;44.810;10.334;2023-07-30T07:08:26;4.13;;;2.10;;
45392;SDS011;31129;44.810;10.334;2023-07-30T07:10:52;3.63;;;1.50;;
45392;SDS011;31129;44.810;10.334;2023-07-30T07:13:18;3.20;;;1.30;;
45392;SDS011;31129;44.810;10.334;2023-07-30T07:15:43;2.95;;;1.42;;
45392;SDS011;31129;44.810;10.334;2023-07-30T07:18:09;4.25;;;1.70;;
45392;SDS011;31129;44.810;10.334;2023-07-30T07:20:36;3.22;;;1.40;;
45392;SDS011;31129;44.810;10.334;2023-07-30T07:23:02;3.65;;;1.55;;
45392;SDS011;31129;44.810;10.334;2023-07-30T07:25:28;2.08;;;1.48;;
45392;SDS011;31129;44.810;10.334;2023-07-30T07:27:53;4.50;;;1.70;;
45392;SDS011;31129;44.810;10.334;2023-07-30T07:30:19;3.58;;;1.52;;
45392;SDS011;31129;44.810;10.334;2023-07-30T07:32:45;1.75;;;1.40;;
45392;SDS011;31129;44.810;10.334;2023-07-30T07:35:10;1.63;;;1.40;;
45392;SDS011;31129;44.810;10.334;2023-07-30T07:37:36;3.95;;;1.70;;
45392;SDS011;31129;44.810;10.334;2023-07-30T07:40:01;1.58;;;1.42;;
45392;SDS011;31129;44.810;10.334;2023-07-30T07:42:29;2.10;;;1.63;;
45392;SDS011;31129;44.810;10.334;2023-07-30T07:44:55;2.03;;;1.70;;
45392;SDS011;31129;44.810;10.334;2023-07-30T07:47:21;5.03;;;1.92;;
45392;SDS011;31129;44.810;10.334;2023-07-30T07:49:47;3.72;;;1.90;;
45392;SDS011;31129;44.810;10.334;2023-07-30T07:52:13;3.65;;;1.65;;
45392;SDS011;31129;44.810;10.334;2023-07-30T07:54:40;5.18;;;1.50;;
45392;SDS011;31129;44.810;10.334;2023-07-30T07:57:07;8.25;;;1.90;;
45392;SDS011;31129;44.810;10.334;2023-07-30T07:59:32;2.83;;;1.73;;
45392;SDS011;31129;44.810;10.334;2023-07-30T08:01:58;2.78;;;2.15;;
45392;SDS011;31129;44.810;10.334;2023-07-30T08:04:23;3.35;;;1.80;;
45392;SDS011;31129;44.810;10.334;2023-07-30T08:06:49;3.22;;;1.98;;
45392;SDS011;31129;44.810;10.334;2023-07-30T08:09:14;3.50;;;1.90;;
45392;SDS011;31129;44.810;10.334;2023-07-30T08:11:40;2.92;;;2.00;;
45392;SDS011;31129;44.810;10.334;2023-07-30T08:14:06;3.53;;;2.13;;
45392;SDS011;31129;44.810;10.334;2023-07-30T08:16:31;5.28;;;2.30;;
45392;SDS011;31129;44.810;10.334;2023-07-30T08:18:57;9.07;;;2.60;;
45392;SDS011;31129;44.810;10.334;2023-07-30T08:21:22;3.17;;;1.90;;
45392;SDS011;31129;44.810;10.334;2023-07-30T08:23:48;3.08;;;1.83;;
45392;SDS011;31129;44.810;10.334;2023-07-30T08:26:13;4.80;;;2.50;;
45392;SDS011;31129;44.810;10.334;2023-07-30T08:28:39;3.22;;;2.22;;
45392;SDS011;31129;44.810;10.334;2023-07-30T08:31:05;3.97;;;2.20;;
45392;SDS011;31129;44.810;10.334;2023-07-30T08:33:30;3.83;;;2.15;;
45392;SDS011;31129;44.810;10.334;2023-07-30T08:35:56;3.88;;;2.10;;
45392;SDS011;31129;44.810;10.334;2023-07-30T08:38:22;4.30;;;2.10;;
45392;SDS011;31129;44.810;10.334;2023-07-30T08:40:48;6.05;;;2.30;;
45392;SDS011;31129;44.810;10.334;2023-07-30T08:43:15;6.13;;;2.50;;
45392;SDS011;31129;44.810;10.334;2023-07-30T08:45:41;9.20;;;2.13;;
45392;SDS011;31129;44.810;10.334;2023-07-30T08:48:06;7.05;;;2.42;;
45392;SDS011;31129;44.810;10.334;2023-07-30T08:50:32;2.33;;;1.90;;
45392;SDS011;31129;44.810;10.334;2023-07-30T08:52:59;5.63;;;2.15;;
45392;SDS011;31129;44.810;10.334;2023-07-30T08:55:26;2.67;;;1.83;;
45392;SDS011;31129;44.810;10.334;2023-07-30T08:57:54;5.93;;;2.58;;
45392;SDS011;31129;44.810;10.334;2023-07-30T09:00:20;3.70;;;2.10;;
45392;SDS011;31129;44.810;10.334;2023-07-30T09:02:51;2.08;;;1.88;;
45392;SDS011;31129;44.810;10.334;2023-07-30T09:05:19;5.20;;;2.00;;
45392;SDS011;31129;44.810;10.334;2023-07-30T09:10:11;5.70;;;2.10;;
45392;SDS011;31129;44.810;10.334;2023-07-30T09:12:37;3.63;;;2.10;;
45392;SDS011;31129;44.810;10.334;2023-07-30T09:15:03;4.00;;;1.90;;
45392;SDS011;31129;44.810;10.334;2023-07-30T09:17:33;6.20;;;2.05;;
45392;SDS011;31129;44.810;10.334;2023-07-30T09:19:59;2.10;;;1.90;;
45392;SDS011;31129;44.810;10.334;2023-07-30T09:22:26;3.20;;;1.98;;
45392;SDS011;31129;44.810;10.334;2023-07-30T09:24:53;2.40;;;1.88;;
45392;SDS011;31129;44.810;10.334;2023-07-30T09:27:20;2.15;;;1.80;;
45392;SDS011;31129;44.810;10.334;2023-07-30T09:29:57;8.63;;;2.20;;
45392;SDS011;31129;44.810;10.334;2023-07-30T09:32:30;5.15;;;2.13;;
45392;SDS011;31129;44.810;10.334;2023-07-30T09:35:07;4.80;;;2.13;;
45392;SDS011;31129;44.810;10.334;2023-07-30T09:40:05;5.97;;;1.85;;
45392;SDS011;31129;44.810;10.334;2023-07-30T09:44:59;4.78;;;1.90;;
45392;SDS011;31129;44.810;10.334;2023-07-30T09:47:26;1.80;;;1.70;;
45392;SDS011;31129;44.810;10.334;2023-07-30T09:49:52;4.13;;;2.38;;
45392;SDS011;31129;44.810;10.334;2023-07-30T09:52:18;2.92;;;2.05;;
45392;SDS011;31129;44.810;10.334;2023-07-30T09:54:44;3.05;;;1.92;;
45392;SDS011;31129;44.810;10.334;2023-07-30T09:57:10;3.25;;;2.22;;
45392;SDS011;31129;44.810;10.334;2023-07-30T09:59:35;4.50;;;1.95;;
45392;SDS011;31129;44.810;10.334;2023-07-30T10:02:03;4.30;;;1.95;;
45392;SDS011;31129;44.810;10.334;2023-07-30T10:04:30;3.50;;;2.00;;
45392;SDS011;31129;44.810;10.334;2023-07-30T10:06:58;2.78;;;1.75;;
45392;SDS011;31129;44.810;10.334;2023-07-30T10:09:29;2.72;;;2.10;;
45392;SDS011;31129;44.810;10.334;2023-07-30T10:11:58;2.45;;;1.83;;
45392;SDS011;31129;44.810;10.334;2023-07-30T10:14:25;5.20;;;2.17;;
45392;SDS011;31129;44.810;10.334;2023-07-30T10:16:55;5.55;;;1.90;;
45392;SDS011;31129;44.810;10.334;2023-07-30T10:19:23;3.80;;;1.88;;
45392;SDS011;31129;44.810;10.334;2023-07-30T10:21:49;6.10;;;2.30;;
45392;SDS011;31129;44.810;10.334;2023-07-30T10:24:16;3.72;;;2.28;;
45392;SDS011;31129;44.810;10.334;2023-07-30T10:26:41;3.05;;;2.35;;
45392;SDS011;31129;44.810;10.334;2023-07-30T10:29:14;3.30;;;2.00;;
45392;SDS011;31129;44.810;10.334;2023-07-30T10:31:48;5.95;;;2.00;;
45392;SDS011;31129;44.810;10.334;2023-07-30T10:34:21;5.13;;;2.13;;
45392;SDS011;31129;44.810;10.334;2023-07-30T10:36:50;4.95;;;2.30;;
45392;SDS011;31129;44.810;10.334;2023-07-30T10:39:20;4.22;;;2.10;;
45392;SDS011;31129;44.810;10.334;2023-07-30T10:41:50;3.80;;;2.00;;
45392;SDS011;31129;44.810;10.334;2023-07-30T10:44:19;3.65;;;2.10;;
45392;SDS011;31129;44.810;10.334;2023-07-30T10:46:44;3.77;;;2.60;;
45392;SDS011;31129;44.810;10.334;2023-07-30T10:49:10;5.60;;;2.20;;
45392;SDS011;31129;44.810;10.334;2023-07-30T10:51:37;3.07;;;1.80;;
45392;SDS011;31129;44.810;10.334;2023-07-30T10:54:05;4.20;;;2.20;;
45392;SDS011;31129;44.810;10.334;2023-07-30T10:56:34;3.92;;;2.17;;
45392;SDS011;31129;44.810;10.334;2023-07-30T10:59:02;6.28;;;2.00;;
45392;SDS011;31129;44.810;10.334;2023-07-30T11:01:30;5.15;;;2.70;;
45392;SDS011;31129;44.810;10.334;2023-07-30T11:03:55;3.95;;;2.47;;
45392;SDS011;31129;44.810;10.334;2023-07-30T11:06:24;6.15;;;2.38;;
45392;SDS011;31129;44.810;10.334;2023-07-30T11:08:51;4.05;;;2.15;;
45392;SDS011;31129;44.810;10.334;2023-07-30T11:11:17;3.13;;;2.17;;
45392;SDS011;31129;44.810;10.334;2023-07-30T11:13:43;4.00;;;2.20;;
45392;SDS011;31129;44.810;10.334;2023-07-30T11:16:13;4.07;;;2.00;;
45392;SDS011;31129;44.810;10.334;2023-07-30T11:18:40;5.38;;;2.22;;
45392;SDS011;31129;44.810;10.334;2023-07-30T11:21:07;3.67;;;2.38;;
45392;SDS011;31129;44.810;10.334;2023-07-30T11:23:34;4.45;;;2.15;;
45392;SDS011;31129;44.810;10.334;2023-07-30T11:26:01;5.22;;;2.25;;
45392;SDS011;31129;44.810;10.334;2023-07-30T11:31:06;3.08;;;2.00;;
45392;SDS011;31129;44.810;10.334;2023-07-30T11:33:44;2.25;;;1.90;;
45392;SDS011;31129;44.810;10.334;2023-07-30T11:36:21;8.57;;;2.38;;
45392;SDS011;31129;44.810;10.334;2023-07-30T11:38:49;4.03;;;2.10;;
45392;SDS011;31129;44.810;10.334;2023-07-30T11:41:18;6.32;;;2.30;;
45392;SDS011;31129;44.810;10.334;2023-07-30T11:43:44;4.33;;;2.50;;
45392;SDS011;31129;44.810;10.334;2023-07-30T11:46:17;3.38;;;2.33;;
45392;SDS011;31129;44.810;10.334;2023-07-30T11:48:49;2.70;;;2.30;;
45392;SDS011;31129;44.810;10.334;2023-07-30T11:51:20;4.88;;;2.25;;
45392;SDS011;31129;44.810;10.334;2023-07-30T11:53:51;3.83;;;2.30;;
45392;SDS011;31129;44.810;10.334;2023-07-30T11:56:30;4.63;;;2.17;;
45392;SDS011;31129;44.810;10.334;2023-07-30T12:01:28;4.55;;;2.60;;
45392;SDS011;31129;44.810;10.334;2023-07-30T12:03:56;6.22;;;2.38;;
45392;SDS011;31129;44.810;10.334;2023-07-30T12:06:58;2.63;;;2.28;;
45392;SDS011;31129;44.810;10.334;2023-07-30T12:09:22;3.30;;;2.13;;
45392;SDS011;31129;44.810;10.334;2023-07-30T12:11:52;3.30;;;2.30;;
45392;SDS011;31129;44.810;10.334;2023-07-30T12:14:21;7.90;;;2.50;;
45392;SDS011;31129;44.810;10.334;2023-07-30T12:16:47;2.78;;;2.05;;
45392;SDS011;31129;44.810;10.334;2023-07-30T12:19:13;7.20;;;2.17;;
45392;SDS011;31129;44.810;10.334;2023-07-30T12:21:39;5.43;;;2.38;;
45392;SDS011;31129;44.810;10.334;2023-07-30T12:24:04;4.13;;;2.20;;
45392;SDS011;31129;44.810;10.334;2023-07-30T12:26:30;3.47;;;2.40;;
45392;SDS011;31129;44.810;10.334;2023-07-30T12:28:56;4.40;;;2.55;;
45392;SDS011;31129;44.810;10.334;2023-07-30T12:31:21;3.38;;;2.50;;
45392;SDS011;31129;44.810;10.334;2023-07-30T12:33:47;2.90;;;2.53;;
45392;SDS011;31129;44.810;10.334;2023-07-30T12:36:12;6.63;;;2.10;;
45392;SDS011;31129;44.810;10.334;2023-07-30T12:38:38;3.28;;;2.38;;
45392;SDS011;31129;44.810;10.334;2023-07-30T12:41:04;3.03;;;2.40;;
45392;SDS011;31129;44.810;10.334;2023-07-30T12:43:30;4.88;;;2.20;;
45392;SDS011;31129;44.810;10.334;2023-07-30T12:45:55;2.47;;;2.28;;
45392;SDS011;31129;44.810;10.334;2023-07-30T12:48:21;2.70;;;2.13;;
45392;SDS011;31129;44.810;10.334;2023-07-30T12:50:46;3.45;;;2.10;;
45392;SDS011;31129;44.810;10.334;2023-07-30T12:53:12;4.35;;;2.33;;
45392;SDS011;31129;44.810;10.334;2023-07-30T12:55:38;3.95;;;2.22;;
45392;SDS011;31129;44.810;10.334;2023-07-30T12:58:04;4.10;;;2.42;;
45392;SDS011;31129;44.810;10.334;2023-07-30T13:00:30;3.70;;;2.30;;
45392;SDS011;31129;44.810;10.334;2023-07-30T13:02:55;3.08;;;2.17;;
45392;SDS011;31129;44.810;10.334;2023-07-30T13:05:22;4.88;;;1.98;;
45392;SDS011;31129;44.810;10.334;2023-07-30T13:07:48;3.90;;;1.85;;
45392;SDS011;31129;44.810;10.334;2023-07-30T13:10:14;2.20;;;1.98;;
45392;SDS011;31129;44.810;10.334;2023-07-30T13:12:39;3.67;;;2.20;;
45392;SDS011;31129;44.810;10.334;2023-07-30T13:15:05;3.00;;;2.00;;
45392;SDS011;31129;44.810;10.334;2023-07-30T13:17:31;2.95;;;2.15;;
45392;SDS011;31129;44.810;10.334;2023-07-30T13:19:57;4.05;;;2.10;;
45392;SDS011;31129;44.810;10.334;2023-07-30T13:22:22;4.05;;;1.98;;
45392;SDS011;31129;44.810;10.334;2023-07-30T13:24:48;3.38;;;2.05;;
45392;SDS011;31129;44.810;10.334;2023-07-30T13:27:14;3.40;;;1.90;;
45392;SDS011;31129;44.810;10.334;2023-07-30T13:29:39;3.17;;;2.03;;
45392;SDS011;31129;44.810;10.334;2023-07-30T13:32:05;5.40;;;2.30;;
45392;SDS011;31129;44.810;10.334;2023-07-30T13:34:31;2.22;;;2.00;;
45392;SDS011;31129;44.810;10.334;2023-07-30T13:36:57;2.93;;;1.83;;
45392;SDS011;31129;44.810;10.334;2023-07-30T13:39:22;6.05;;;2.30;;
45392;SDS011;31129;44.810;10.334;2023-07-30T13:41:48;4.40;;;2.20;;
45392;SDS011;31129;44.810;10.334;2023-07-30T13:44:13;2.72;;;1.92;;
45392;SDS011;31129;44.810;10.334;2023-07-30T13:46:39;5.80;;;1.95;;
45392;SDS011;31129;44.810;10.334;2023-07-30T13:49:05;3.58;;;1.88;;
45392;SDS011;31129;44.810;10.334;2023-07-30T13:51:31;3.45;;;2.10;;
45392;SDS011;31129;44.810;10.334;2023-07-30T13:54:00;5.85;;;1.83;;
45392;SDS011;31129;44.810;10.334;2023-07-30T13:56:27;3.60;;;2.10;;
45392;SDS011;31129;44.810;10.334;2023-07-30T13:58:53;4.22;;;2.30;;
45392;SDS011;31129;44.810;10.334;2023-07-30T14:01:19;4.13;;;1.60;;
45392;SDS011;31129;44.810;10.334;2023-07-30T14:03:45;3.03;;;2.20;;
45392;SDS011;31129;44.810;10.334;2023-07-30T14:06:10;2.35;;;1.90;;
45392;SDS011;31129;44.810;10.334;2023-07-30T14:08:36;5.28;;;2.28;;
45392;SDS011;31129;44.810;10.334;2023-07-30T14:11:01;2.95;;;1.98;;
45392;SDS011;31129;44.810;10.334;2023-07-30T14:13:27;2.67;;;2.10;;
45392;SDS011;31129;44.810;10.334;2023-07-30T14:15:53;4.78;;;2.00;;
45392;SDS011;31129;44.810;10.334;2023-07-30T14:18:18;2.30;;;1.92;;
45392;SDS011;31129;44.810;10.334;2023-07-30T14:20:43;2.80;;;2.28;;
45392;SDS011;31129;44.810;10.334;2023-07-30T14:23:09;4.90;;;2.15;;
45392;SDS011;31129;44.810;10.334;2023-07-30T14:25:35;3.15;;;1.77;;
45392;SDS011;31129;44.810;10.334;2023-07-30T14:28:01;2.17;;;1.95;;
45392;SDS011;31129;44.810;10.334;2023-07-30T14:30:26;6.38;;;2.05;;
45392;SDS011;31129;44.810;10.334;2023-07-30T14:32:52;6.55;;;2.35;;
45392;SDS011;31129;44.810;10.334;2023-07-30T14:35:17;3.13;;;2.40;;
45392;SDS011;31129;44.810;10.334;2023-07-30T14:37:43;6.40;;;2.40;;
45392;SDS011;31129;44.810;10.334;2023-07-30T14:40:08;5.05;;;1.90;;